createdAt,value
2023-03-02T00:02:02.039Z,100519.63
2023-03-02T00:04:47.221Z,100524.22
2023-03-02T00:07:21.186Z,100516.47
2023-03-02T00:09:51.520Z,100513.50
2023-03-02T00:12:19.901Z,100518.56
2023-03-02T00:14:48.067Z,100511.06
2023-03-02T00:17:16.372Z,100505.91
2023-03-02T00:19:48.198Z,100512.13
2023-03-02T00:22:16.557Z,100519.41
2023-03-02T00:24:44.976Z,100513.97
2023-03-02T00:27:13.140Z,100520.25
2023-03-02T00:29:43.000Z,100527.94
2023-03-02T00:32:18.121Z,100531.72
2023-03-02T00:34:47.066Z,100523.00
2023-03-02T00:37:15.489Z,100521.69
2023-03-02T00:39:47.264Z,100507.31
2023-03-02T00:42:16.017Z,100508.16
2023-03-02T00:44:44.120Z,100499.34
2023-03-02T00:47:12.792Z,100497.16
2023-03-02T00:49:42.016Z,100496.72
2023-03-02T00:52:10.147Z,100485.97
2023-03-02T00:54:38.162Z,100489.25
2023-03-02T00:57:06.809Z,100496.94
2023-03-02T00:59:37.630Z,100495.13
2023-03-02T01:02:07.085Z,100486.53
2023-03-02T01:04:38.934Z,100485.97
2023-03-02T01:07:17.370Z,100488.75
2023-03-02T01:09:48.609Z,100487.78
2023-03-02T01:12:17.123Z,100480.72
2023-03-02T01:14:47.793Z,100484.94
2023-03-02T01:17:16.739Z,100469.34
2023-03-02T01:19:45.401Z,100464.09
2023-03-02T01:22:14.477Z,100459.03
2023-03-02T01:24:42.661Z,100464.94
2023-03-02T01:27:11.481Z,100464.16
2023-03-02T01:29:40.048Z,100459.38
2023-03-02T01:32:08.363Z,100447.25
2023-03-02T01:34:36.541Z,100446.06
2023-03-02T01:37:04.867Z,100451.19
2023-03-02T01:39:33.933Z,100443.44
2023-03-02T01:42:02.158Z,100441.78
2023-03-02T01:44:35.560Z,100436.75
2023-03-02T01:47:16.997Z,100427.69
2023-03-02T01:49:55.500Z,100434.56
2023-03-02T01:52:26.211Z,100443.31
2023-03-02T01:54:59.109Z,100434.28
2023-03-02T01:57:33.142Z,100418.09
2023-03-02T02:00:10.240Z,100418.00
2023-03-02T02:02:42.028Z,100421.25
2023-03-02T02:05:18.491Z,100416.97
2023-03-02T02:07:47.337Z,100409.91
2023-03-02T02:10:16.911Z,100407.00
2023-03-02T02:12:46.356Z,100395.78
2023-03-02T02:15:14.860Z,100406.59
2023-03-02T02:17:42.995Z,100393.81
2023-03-02T02:20:37.866Z,100398.47
2023-03-02T02:23:28.230Z,100400.28
2023-03-02T02:25:59.987Z,100393.00
2023-03-02T02:28:33.598Z,100383.09
2023-03-02T02:31:26.843Z,100395.78
2023-03-02T02:34:17.229Z,100386.09
2023-03-02T02:36:49.508Z,100381.50
2023-03-02T02:39:23.801Z,100389.31
2023-03-02T02:41:57.679Z,100387.19
2023-03-02T02:44:26.829Z,100380.16
2023-03-02T02:46:55.168Z,100374.84
2023-03-02T02:49:38.751Z,100378.47
2023-03-02T02:52:10.278Z,100378.16
2023-03-02T02:54:39.033Z,100380.00
2023-03-02T02:57:07.957Z,100390.75
2023-03-02T02:59:43.103Z,100376.50
2023-03-02T03:02:17.036Z,100386.84
2023-03-02T03:04:45.568Z,100393.00
2023-03-02T03:07:21.754Z,100394.13
2023-03-02T03:10:01.002Z,100388.44
2023-03-02T03:12:33.739Z,100384.09
2023-03-02T03:15:04.333Z,100396.81
2023-03-02T03:17:32.808Z,100382.63
2023-03-02T03:20:09.522Z,100385.00
2023-03-02T03:22:40.743Z,100398.47
2023-03-02T03:25:09.745Z,100394.00
2023-03-02T03:27:38.301Z,100390.72
2023-03-02T03:30:07.548Z,100379.84
2023-03-02T03:32:36.823Z,100380.75
2023-03-02T03:35:08.827Z,100385.72
2023-03-02T03:37:38.519Z,100374.97
2023-03-02T03:40:09.664Z,100380.78
2023-03-02T03:42:40.109Z,100384.66
2023-03-02T03:45:09.363Z,100376.91
2023-03-02T03:47:38.104Z,100386.50
2023-03-02T03:50:08.448Z,100393.53
2023-03-02T03:52:38.629Z,100387.66
2023-03-02T03:55:07.992Z,100389.75
2023-03-02T03:57:36.536Z,100386.31
2023-03-02T04:00:10.645Z,100388.63
2023-03-02T04:02:43.021Z,100384.53
2023-03-02T04:05:12.876Z,100389.63
2023-03-02T04:07:42.375Z,100393.72
2023-03-02T04:10:12.437Z,100387.72
2023-03-02T04:12:47.214Z,100391.47
2023-03-02T04:15:16.661Z,100377.91
2023-03-02T04:17:46.199Z,100386.66
2023-03-02T04:20:19.224Z,100390.72
2023-03-02T04:22:52.744Z,100389.69
2023-03-02T04:25:23.474Z,100387.50
2023-03-02T04:27:53.601Z,100374.78
2023-03-02T04:30:25.465Z,100391.88
2023-03-02T04:32:54.648Z,100394.25
2023-03-02T04:35:23.363Z,100389.91
2023-03-02T04:37:51.859Z,100389.44
2023-03-02T04:40:20.570Z,100387.41
2023-03-02T04:42:48.763Z,100378.75
2023-03-02T04:45:17.221Z,100377.78
2023-03-02T04:47:45.761Z,100378.00
2023-03-02T04:50:15.429Z,100379.97
2023-03-02T04:52:43.729Z,100381.38
2023-03-02T04:55:20.938Z,100381.00
2023-03-02T04:57:49.626Z,100383.41
2023-03-02T05:00:19.341Z,100388.16
2023-03-02T05:02:51.188Z,100390.59
2023-03-02T05:05:23.430Z,100396.78
2023-03-02T05:07:52.174Z,100396.03
2023-03-02T05:10:23.005Z,100395.84
2023-03-02T05:13:05.402Z,100395.41
2023-03-02T05:15:39.512Z,100393.91
2023-03-02T05:18:11.886Z,100396.97
2023-03-02T05:20:40.396Z,100384.84
2023-03-02T05:23:10.633Z,100404.53
2023-03-02T05:25:39.168Z,100399.22
2023-03-02T05:28:07.864Z,100399.63
2023-03-02T05:30:38.886Z,100388.38
2023-03-02T05:33:08.815Z,100392.69
2023-03-02T05:35:37.594Z,100387.88
2023-03-02T05:38:05.944Z,100391.75
2023-03-02T05:40:34.223Z,100386.47
2023-03-02T05:43:03.602Z,100401.84
2023-03-02T05:45:35.302Z,100402.34
2023-03-02T05:48:05.482Z,100395.41
2023-03-02T05:50:33.972Z,100397.09
2023-03-02T05:53:02.649Z,100401.66
2023-03-02T05:55:37.222Z,100405.69
2023-03-02T05:58:14.501Z,100414.34
2023-03-02T06:00:43.705Z,100414.69
2023-03-02T06:03:13.047Z,100416.66
2023-03-02T06:05:41.302Z,100422.75
2023-03-02T06:08:10.030Z,100421.66
2023-03-02T06:10:39.298Z,100428.19
2023-03-02T06:13:07.541Z,100428.47
2023-03-02T06:15:35.826Z,100432.22
2023-03-02T06:18:04.464Z,100433.78
2023-03-02T06:20:32.817Z,100430.16
2023-03-02T06:23:01.245Z,100430.84
2023-03-02T06:25:29.786Z,100433.81
2023-03-02T06:27:58.410Z,100434.44
2023-03-02T06:30:28.152Z,100426.13
2023-03-02T06:32:56.840Z,100432.75
2023-03-02T06:35:25.359Z,100437.56
2023-03-02T06:37:53.627Z,100439.97
2023-03-02T06:40:22.324Z,100428.47
2023-03-02T06:42:50.659Z,100425.78
2023-03-02T06:45:18.928Z,100433.78
2023-03-02T06:47:47.272Z,100425.53
2023-03-02T06:50:17.212Z,100422.34
2023-03-02T06:52:45.402Z,100434.94
2023-03-02T06:55:13.921Z,100438.69
2023-03-02T06:57:42.252Z,100442.84
2023-03-02T07:00:25.823Z,100440.31
2023-03-02T07:02:57.028Z,100424.06
2023-03-02T07:05:25.440Z,100442.22
2023-03-02T07:07:53.619Z,100442.72
2023-03-02T07:10:22.742Z,100449.28
2023-03-02T07:12:50.934Z,100443.38
2023-03-02T07:15:19.079Z,100445.81
2023-03-02T07:17:48.274Z,100443.78
2023-03-02T07:20:18.527Z,100440.87
2023-03-02T07:22:52.335Z,100459.91
2023-03-02T07:25:21.174Z,100447.53
2023-03-02T07:27:49.654Z,100452.31
2023-03-02T07:30:21.407Z,100457.13
2023-03-02T07:32:50.808Z,100453.28
2023-03-02T07:35:19.209Z,100446.63
2023-03-02T07:37:47.629Z,100441.38
2023-03-02T07:40:16.482Z,100448.84
2023-03-02T07:42:44.708Z,100440.87
2023-03-02T07:45:17.006Z,100442.75
2023-03-02T07:47:45.590Z,100438.06
2023-03-02T07:50:13.734Z,100443.66
2023-03-02T07:52:45.313Z,100428.13
2023-03-02T07:55:13.957Z,100420.50
2023-03-02T07:57:42.127Z,100427.03
2023-03-02T08:00:11.525Z,100430.25
2023-03-02T08:02:42.514Z,100431.75
2023-03-02T08:05:12.632Z,100426.94
2023-03-02T08:07:41.021Z,100428.28
2023-03-02T08:10:10.587Z,100412.38
2023-03-02T08:12:44.224Z,100419.94
2023-03-02T08:15:12.383Z,100421.59
2023-03-02T08:17:40.805Z,100423.09
2023-03-02T08:20:11.585Z,100417.75
2023-03-02T08:22:40.676Z,100413.94
2023-03-02T08:25:09.419Z,100416.31
2023-03-02T08:27:40.327Z,100421.31
2023-03-02T08:30:10.918Z,100427.94
2023-03-02T08:32:45.963Z,100422.03
2023-03-02T08:35:14.578Z,100424.72
2023-03-02T08:37:42.796Z,100423.28
2023-03-02T08:40:15.169Z,100411.03
2023-03-02T08:42:49.884Z,100417.78
2023-03-02T08:45:20.952Z,100414.06
2023-03-02T08:47:49.450Z,100408.19
2023-03-02T08:50:18.042Z,100421.00
2023-03-02T08:52:47.551Z,100417.06
2023-03-02T08:55:18.680Z,100411.34
2023-03-02T08:57:47.713Z,100406.87
2023-03-02T09:00:19.044Z,100419.31
2023-03-02T09:02:47.777Z,100415.22
2023-03-02T09:05:16.357Z,100416.25
2023-03-02T09:07:44.617Z,100407.13
2023-03-02T09:10:13.340Z,100419.38
2023-03-02T09:12:42.898Z,100413.06
2023-03-02T09:15:11.076Z,100418.69
2023-03-02T09:17:39.254Z,100405.84
2023-03-02T09:20:08.868Z,100406.75
2023-03-02T09:22:42.715Z,100407.88
2023-03-02T09:25:11.397Z,100409.81
2023-03-02T09:27:39.544Z,100402.66
2023-03-02T09:30:09.483Z,100403.81
2023-03-02T09:32:42.863Z,100398.28
2023-03-02T09:35:11.283Z,100397.44
2023-03-02T09:37:39.854Z,100397.63
2023-03-02T09:40:20.844Z,100395.22
2023-03-02T09:43:03.950Z,100389.06
2023-03-02T09:45:56.913Z,100385.94
2023-03-02T09:48:37.582Z,100382.34
2023-03-02T09:51:08.564Z,100389.91
2023-03-02T09:53:37.262Z,100394.28
2023-03-02T09:56:17.585Z,100385.06
2023-03-02T09:58:58.203Z,100383.19
2023-03-02T10:01:35.867Z,100383.47
2023-03-02T10:04:19.067Z,100378.44
2023-03-02T10:06:48.671Z,100379.53
2023-03-02T10:09:17.498Z,100373.16
2023-03-02T10:12:12.516Z,100375.47
2023-03-02T10:15:11.641Z,100375.53
2023-03-02T10:17:55.144Z,100372.53
2023-03-02T10:20:34.205Z,100365.91
2023-03-02T10:23:13.183Z,100369.84
2023-03-02T10:25:50.269Z,100366.19
2023-03-02T10:28:22.077Z,100359.56
2023-03-02T10:31:17.866Z,100361.66
2023-03-02T10:33:46.133Z,100363.75
2023-03-02T10:36:37.623Z,100358.66
2023-03-02T10:39:17.110Z,100355.09
2023-03-02T10:41:45.726Z,100354.03
2023-03-02T10:44:21.617Z,100348.59
2023-03-02T10:46:51.354Z,100337.91
2023-03-02T10:49:39.435Z,100345.56
2023-03-02T10:52:18.138Z,100347.59
2023-03-02T10:54:47.613Z,100346.53
2023-03-02T10:57:38.559Z,100344.34
2023-03-02T11:00:37.194Z,100333.31
2023-03-02T11:03:21.089Z,100337.25
2023-03-02T11:05:50.269Z,100331.16
2023-03-02T11:08:24.832Z,100324.75
2023-03-02T11:11:01.006Z,100322.34
2023-03-02T11:13:36.962Z,100324.69
2023-03-02T11:16:22.532Z,100317.19
2023-03-02T11:19:14.461Z,100316.16
2023-03-02T11:21:55.884Z,100307.56
2023-03-02T11:24:36.751Z,100302.34
2023-03-02T11:27:16.654Z,100301.13
2023-03-02T11:29:52.204Z,100298.19
2023-03-02T11:32:45.824Z,100301.28
2023-03-02T11:35:21.581Z,100296.16
2023-03-02T11:37:53.384Z,100293.97
2023-03-02T11:40:30.371Z,100286.41
2023-03-02T11:43:01.231Z,100281.84
2023-03-02T11:45:42.075Z,100283.00
2023-03-02T11:48:27.905Z,100289.13
2023-03-02T11:51:10.840Z,100283.94
2023-03-02T11:54:00.090Z,100276.09
2023-03-02T11:56:31.795Z,100271.47
2023-03-02T11:59:05.021Z,100275.34
2023-03-02T12:01:36.216Z,100269.16
2023-03-02T12:04:25.579Z,100273.50
2023-03-02T12:06:54.003Z,100275.47
2023-03-02T12:09:22.477Z,100274.53
2023-03-02T12:12:23.661Z,100273.88
2023-03-02T12:14:52.778Z,100266.50
2023-03-02T12:17:30.836Z,100265.72
2023-03-02T12:20:08.988Z,100259.53
2023-03-02T12:22:38.004Z,100250.78
2023-03-02T12:25:28.796Z,100258.59
2023-03-02T12:27:57.074Z,100261.22
2023-03-02T12:30:28.281Z,100253.19
2023-03-02T12:33:11.423Z,100252.12
2023-03-02T12:35:40.002Z,100246.72
2023-03-02T12:38:41.773Z,100258.50
2023-03-02T12:41:36.375Z,100246.09
2023-03-02T12:44:21.269Z,100245.34
2023-03-02T12:46:51.555Z,100237.34
2023-03-02T12:49:46.743Z,100242.31
2023-03-02T12:52:41.491Z,100240.94
2023-03-02T12:55:09.654Z,100226.00
2023-03-02T12:57:46.811Z,100235.31
2023-03-02T13:00:19.780Z,100218.44
2023-03-02T13:02:50.749Z,100228.00
2023-03-02T13:05:22.743Z,100231.25
2023-03-02T13:08:02.474Z,100222.00
2023-03-02T13:10:39.935Z,100216.56
2023-03-02T13:13:38.358Z,100202.78
2023-03-02T13:16:19.924Z,100205.88
2023-03-02T13:18:53.777Z,100196.81
2023-03-02T13:21:25.205Z,100204.25
2023-03-02T13:23:54.131Z,100203.41
2023-03-02T13:26:30.132Z,100202.00
2023-03-02T13:29:23.073Z,100196.69
2023-03-02T13:31:51.616Z,100187.34
2023-03-02T13:34:33.351Z,100200.38
2023-03-02T13:37:01.768Z,100194.06
2023-03-02T13:39:32.040Z,100187.16
2023-03-02T13:42:03.236Z,100196.28
2023-03-02T13:44:34.142Z,100179.59
2023-03-02T13:47:03.969Z,100183.81
2023-03-02T13:49:35.612Z,100173.44
2023-03-02T13:52:17.395Z,100173.56
2023-03-02T13:54:48.068Z,100170.84
2023-03-02T13:57:30.796Z,100174.12
2023-03-02T14:00:00.578Z,100162.59
2023-03-02T14:02:30.875Z,100171.94
2023-03-02T14:04:59.675Z,100166.66
2023-03-02T14:07:30.623Z,100161.59
2023-03-02T14:10:00.160Z,100151.47
2023-03-02T14:12:33.022Z,100147.88
2023-03-02T14:15:03.433Z,100151.31
2023-03-02T14:17:31.953Z,100139.69
2023-03-02T14:20:00.798Z,100138.84
2023-03-02T14:22:30.235Z,100136.34
2023-03-02T14:24:58.757Z,100135.16
2023-03-02T14:27:30.492Z,100139.00
2023-03-02T14:30:00.798Z,100126.53
2023-03-02T14:32:29.309Z,100122.59
2023-03-02T14:34:57.619Z,100127.22
2023-03-02T14:37:29.064Z,100123.38
2023-03-02T14:40:00.185Z,100125.59
2023-03-02T14:42:29.072Z,100129.31
2023-03-02T14:44:57.156Z,100116.62
2023-03-02T14:47:25.436Z,100123.53
2023-03-02T14:49:55.348Z,100116.09
2023-03-02T14:52:35.868Z,100120.34
2023-03-02T14:55:25.697Z,100118.69
2023-03-02T14:58:04.984Z,100116.28
2023-03-02T15:00:33.607Z,100108.47
2023-03-02T15:03:02.313Z,100108.16
2023-03-02T15:05:30.463Z,100116.28
2023-03-02T15:07:59.034Z,100107.94
2023-03-02T15:10:27.650Z,100108.31
2023-03-02T15:12:55.738Z,100112.34
2023-03-02T15:15:25.039Z,100108.53
2023-03-02T15:17:53.830Z,100095.91
2023-03-02T15:20:25.163Z,100102.38
2023-03-02T15:22:53.626Z,100103.12
2023-03-02T15:25:24.017Z,100100.22
2023-03-02T15:27:53.328Z,100104.22
2023-03-02T15:30:24.349Z,100106.56
2023-03-02T15:32:54.911Z,100105.50
2023-03-02T15:35:23.328Z,100108.81
2023-03-02T15:37:52.511Z,100097.03
2023-03-02T15:40:23.549Z,100108.84
2023-03-02T15:42:53.152Z,100113.00
2023-03-02T15:45:21.248Z,100113.03
2023-03-02T15:47:50.378Z,100114.50
2023-03-02T15:50:19.919Z,100112.19
2023-03-02T15:52:48.390Z,100113.56
2023-03-02T15:55:17.232Z,100115.22
2023-03-02T15:57:45.599Z,100122.75
2023-03-02T16:00:16.760Z,100119.59
2023-03-02T16:02:49.123Z,100116.59
2023-03-02T16:05:17.643Z,100117.28
2023-03-02T16:07:46.528Z,100118.66
2023-03-02T16:10:16.803Z,100116.31
2023-03-02T16:12:47.700Z,100123.97
2023-03-02T16:15:16.642Z,100111.37
2023-03-02T16:17:44.894Z,100123.16
2023-03-02T16:20:13.662Z,100129.16
2023-03-02T16:22:43.970Z,100119.53
2023-03-02T16:25:12.396Z,100130.19
2023-03-02T16:27:40.439Z,100124.56
2023-03-02T16:30:11.249Z,100123.03
2023-03-02T16:32:42.390Z,100123.84
2023-03-02T16:35:10.973Z,100132.41
2023-03-02T16:37:39.252Z,100133.19
2023-03-02T16:40:08.807Z,100128.09
2023-03-02T16:42:41.394Z,100131.06
2023-03-02T16:45:10.033Z,100142.50
2023-03-02T16:47:38.671Z,100140.47
2023-03-02T16:50:10.727Z,100138.91
2023-03-02T16:52:40.695Z,100143.22
2023-03-02T16:55:13.789Z,100149.41
2023-03-02T16:57:42.925Z,100147.41
2023-03-02T17:00:15.001Z,100156.19
2023-03-02T17:02:44.943Z,100155.84
2023-03-02T17:05:15.121Z,100158.50
2023-03-02T17:07:43.778Z,100158.69
2023-03-02T17:10:21.515Z,100155.56
2023-03-02T17:12:50.695Z,100159.81
2023-03-02T17:15:18.881Z,100161.25
2023-03-02T17:17:47.479Z,100163.94
2023-03-02T17:20:20.946Z,100166.53
2023-03-02T17:22:49.673Z,100161.00
2023-03-02T17:25:18.584Z,100162.56
2023-03-02T17:27:48.891Z,100157.62
2023-03-02T17:30:20.459Z,100156.56
2023-03-02T17:32:49.984Z,100159.28
2023-03-02T17:35:18.429Z,100163.41
2023-03-02T17:37:47.047Z,100165.63
2023-03-02T17:40:17.359Z,100162.59
2023-03-02T17:42:47.511Z,100155.25
2023-03-02T17:45:18.885Z,100157.16
2023-03-02T17:47:49.334Z,100152.22
2023-03-02T17:50:21.880Z,100157.16
2023-03-02T17:52:51.362Z,100160.53
2023-03-02T17:55:20.388Z,100153.66
2023-03-02T17:57:49.089Z,100162.00
2023-03-02T18:00:23.217Z,100154.34
2023-03-02T18:02:53.833Z,100159.09
2023-03-02T18:05:22.282Z,100158.19
2023-03-02T18:07:52.569Z,100160.53
2023-03-02T18:10:22.034Z,100157.97
2023-03-02T18:12:52.759Z,100168.66
2023-03-02T18:15:24.094Z,100162.28
2023-03-02T18:17:52.885Z,100178.25
2023-03-02T18:20:22.017Z,100174.00
2023-03-02T18:22:51.199Z,100170.56
2023-03-02T18:25:19.378Z,100161.06
2023-03-02T18:27:47.528Z,100167.53
2023-03-02T18:30:18.477Z,100164.06
2023-03-02T18:32:49.915Z,100168.66
2023-03-02T18:35:19.758Z,100175.87
2023-03-02T18:37:48.075Z,100165.94
2023-03-02T18:40:17.206Z,100172.28
2023-03-02T18:42:46.831Z,100166.72
2023-03-02T18:45:24.020Z,100184.09
2023-03-02T18:47:53.404Z,100173.47
2023-03-02T18:50:23.247Z,100174.22
2023-03-02T18:52:52.942Z,100181.22
2023-03-02T18:55:24.132Z,100176.06
2023-03-02T18:57:54.075Z,100178.25
2023-03-02T19:00:28.321Z,100182.47
2023-03-02T19:02:57.325Z,100188.03
2023-03-02T19:05:27.142Z,100185.97
2023-03-02T19:07:57.664Z,100173.09
2023-03-02T19:10:26.783Z,100179.47
2023-03-02T19:12:55.552Z,100177.09
2023-03-02T19:15:25.175Z,100178.03
2023-03-02T19:17:54.228Z,100184.22
2023-03-02T19:20:22.680Z,100186.59
2023-03-02T19:22:51.114Z,100182.22
2023-03-02T19:25:20.060Z,100184.31
2023-03-02T19:27:48.626Z,100178.38
2023-03-02T19:30:23.064Z,100177.91
2023-03-02T19:32:54.891Z,100174.62
2023-03-02T19:35:27.154Z,100181.44
2023-03-02T19:37:56.152Z,100186.69
2023-03-02T19:40:29.000Z,100181.03
2023-03-02T19:42:58.474Z,100181.84
2023-03-02T19:45:29.742Z,100174.06
2023-03-02T19:48:00.587Z,100189.28
2023-03-02T19:50:29.723Z,100177.53
2023-03-02T19:52:59.217Z,100178.56
2023-03-02T19:55:28.153Z,100191.12
2023-03-02T19:57:59.830Z,100186.31
2023-03-02T20:00:32.239Z,100178.81
2023-03-02T20:03:01.332Z,100191.84
2023-03-02T20:05:29.834Z,100184.91
2023-03-02T20:07:58.554Z,100175.31
2023-03-02T20:10:32.578Z,100181.53
2023-03-02T20:13:01.797Z,100184.31
2023-03-02T20:15:32.332Z,100182.16
2023-03-02T20:18:02.872Z,100191.53
2023-03-02T20:20:33.445Z,100183.28
2023-03-02T20:23:02.279Z,100182.66
2023-03-02T20:25:31.521Z,100187.00
2023-03-02T20:28:00.867Z,100185.38
2023-03-02T20:30:40.448Z,100192.69
2023-03-02T20:33:10.233Z,100195.50
2023-03-02T20:35:41.202Z,100188.47
2023-03-02T20:38:16.520Z,100187.72
2023-03-02T20:40:45.821Z,100205.38
2023-03-02T20:43:14.750Z,100194.00
2023-03-02T20:45:43.885Z,100196.91
2023-03-02T20:48:13.186Z,100201.69
2023-03-02T20:50:42.750Z,100191.34
2023-03-02T20:53:11.997Z,100203.66
2023-03-02T20:55:42.191Z,100204.41
2023-03-02T20:58:11.745Z,100207.28
2023-03-02T21:00:41.658Z,100198.81
2023-03-02T21:03:10.408Z,100198.16
2023-03-02T21:05:40.676Z,100189.81
2023-03-02T21:08:14.935Z,100196.53
2023-03-02T21:10:43.927Z,100198.75
2023-03-02T21:13:13.204Z,100196.59
2023-03-02T21:15:41.916Z,100174.34
2023-03-02T21:18:11.013Z,100188.50
2023-03-02T21:20:39.790Z,100182.84
2023-03-02T21:23:08.201Z,100175.41
2023-03-02T21:25:37.424Z,100181.47
2023-03-02T21:28:05.869Z,100173.38
2023-03-02T21:30:37.005Z,100179.97
2023-03-02T21:33:05.563Z,100166.03
2023-03-02T21:35:33.741Z,100173.31
2023-03-02T21:38:05.056Z,100185.28
2023-03-02T21:40:43.116Z,100173.84
2023-03-02T21:43:16.135Z,100182.75
2023-03-02T21:45:44.788Z,100178.12
2023-03-02T21:48:14.055Z,100178.09
2023-03-02T21:50:42.523Z,100184.66
2023-03-02T21:53:11.095Z,100182.03
2023-03-02T21:55:39.403Z,100186.13
2023-03-02T21:58:07.733Z,100181.97
2023-03-02T22:00:38.716Z,100180.44
2023-03-02T22:03:07.360Z,100182.97
2023-03-02T22:05:36.265Z,100187.03
2023-03-02T22:08:04.754Z,100181.62
2023-03-02T22:10:49.800Z,100184.50
2023-03-02T22:13:33.267Z,100175.97
2023-03-02T22:16:04.862Z,100166.47
2023-03-02T22:18:33.807Z,100164.44
2023-03-02T22:21:07.445Z,100171.44
2023-03-02T22:23:35.823Z,100169.56
2023-03-02T22:26:15.016Z,100168.47
2023-03-02T22:28:43.555Z,100162.19
2023-03-02T22:31:21.175Z,100162.75
2023-03-02T22:33:50.429Z,100173.13
2023-03-02T22:36:22.559Z,100169.13
2023-03-02T22:38:51.642Z,100169.47
2023-03-02T22:41:20.443Z,100167.66
2023-03-02T22:43:49.612Z,100161.31
2023-03-02T22:46:21.701Z,100162.69
2023-03-02T22:48:51.857Z,100162.87
2023-03-02T22:51:23.759Z,100160.31
2023-03-02T22:53:55.184Z,100160.13
2023-03-02T22:56:26.231Z,100163.31
2023-03-02T22:58:56.605Z,100156.63
2023-03-02T23:01:45.162Z,100164.56
2023-03-02T23:04:25.055Z,100165.53
2023-03-02T23:06:55.641Z,100164.25
2023-03-02T23:09:30.538Z,100156.94
2023-03-02T23:12:03.012Z,100152.06
2023-03-02T23:14:41.767Z,100147.69
2023-03-02T23:17:21.459Z,100154.03
2023-03-02T23:19:52.982Z,100144.72
2023-03-02T23:22:21.256Z,100146.38
2023-03-02T23:24:49.711Z,100149.53
2023-03-02T23:27:17.680Z,100162.56
2023-03-02T23:29:46.234Z,100148.06
2023-03-02T23:32:15.056Z,100146.88
2023-03-02T23:34:44.169Z,100133.62
2023-03-02T23:37:12.387Z,100136.38
2023-03-02T23:39:40.812Z,100131.22
2023-03-02T23:42:09.191Z,100138.75
2023-03-02T23:44:37.318Z,100137.81
2023-03-02T23:47:05.775Z,100138.44
2023-03-02T23:49:34.036Z,100125.97
2023-03-02T23:52:02.214Z,100140.16
2023-03-02T23:54:30.525Z,100136.69
2023-03-02T23:56:58.704Z,100131.41
2023-03-02T23:59:27.829Z,100139.38
